Time;durP1;ratioP1;P1;durP2;ratioP2;P2;SDS_P1;SDS_P2;PMS_P1;PMS_P2;Temp;Humidity;BMP_temperature;BMP_pressure;BME280_temperature;BME280_humidity;BME280_pressure;Samples;Min_cycle;Max_cycle;Signal;HPM_P1;HPM_P2
2023/06/23 00:02:32;;;;;;;2.07;1.97;;;24.00;91.60;;;;;;10389584;28;20215;-80
2023/06/23 00:07:35;;;;;;;2.43;2.33;;;24.00;91.50;;;;;;10389119;28;20199;-81
2023/06/23 00:12:41;;;;;;;2.57;2.47;;;23.90;92.00;;;;;;10388779;28;20211;-80
2023/06/23 00:17:46;;;;;;;2.90;2.70;;;23.80;92.20;;;;;;10386118;28;20203;-80
2023/06/23 00:22:49;;;;;;;2.57;2.40;;;23.80;92.30;;;;;;10370566;28;20243;-80
2023/06/23 00:27:51;;;;;;;2.70;2.50;;;23.70;92.50;;;;;;10389220;28;20203;-79
2023/06/23 00:32:54;;;;;;;2.43;2.33;;;23.70;92.60;;;;;;10369490;28;20215;-79
2023/06/23 00:37:57;;;;;;;2.30;2.20;;;23.60;92.80;;;;;;10387799;28;20211;-79
2023/06/23 00:42:59;;;;;;;2.60;2.50;;;23.60;92.90;;;;;;10374447;28;20219;-80
2023/06/23 00:48:04;;;;;;;2.90;2.70;;;23.60;93.10;;;;;;10367875;28;20198;-79
2023/06/23 00:53:08;;;;;;;3.03;2.70;;;23.60;93.30;;;;;;10384422;28;20215;-80
2023/06/23 00:58:10;;;;;;;2.83;2.63;;;23.50;93.20;;;;;;10385580;28;20195;-81
2023/06/23 01:03:13;;;;;;;2.70;2.60;;;23.40;93.70;;;;;;10371596;28;20315;-81
2023/06/23 01:08:27;;;;;;;2.53;2.43;;;23.40;93.90;;;;;;10376543;28;20282;-80
2023/06/23 01:13:34;;;;;;;3.30;3.10;;;23.30;94.40;;;;;;10373597;28;20261;-79
2023/06/23 01:18:46;;;;;;;3.73;3.50;;;23.20;96.70;;;;;;10340595;28;20572;-79
2023/06/23 01:24:14;;;;;;;3.33;3.13;;;22.90;98.20;;;;;;10357595;28;20227;-79
2023/06/23 01:29:22;;;;;;;3.97;3.77;;;22.80;98.90;;;;;;10364640;28;20204;-79
2023/06/23 01:34:30;;;;;;;4.30;4.10;;;22.60;99.90;;;;;;10367937;28;20258;-80
2023/06/23 01:39:35;;;;;;;5.40;5.00;;;22.50;99.90;;;;;;10356628;28;20600;-79
2023/06/23 01:44:47;;;;;;;6.90;6.50;;;22.20;99.90;;;;;;10339522;28;20781;-79
2023/06/23 01:49:51;;;;;;;6.20;5.80;;;21.80;99.90;;;;;;10354658;28;20226;-79
2023/06/23 01:54:55;;;;;;;7.00;6.53;;;21.60;99.90;;;;;;10353756;28;20250;-79
2023/06/23 01:59:59;;;;;;;6.97;6.47;;;21.40;99.90;;;;;;10376826;28;20199;-79
2023/06/23 02:05:02;;;;;;;7.10;6.60;;;21.30;99.90;;;;;;10357704;28;20211;-79
2023/06/23 02:10:06;;;;;;;6.87;6.43;;;21.30;99.90;;;;;;10358502;28;20746;-79
2023/06/23 02:15:12;;;;;;;4.60;4.40;;;21.30;99.90;;;;;;10359020;28;20222;-80
2023/06/23 02:20:16;;;;;;;4.90;4.60;;;21.30;99.90;;;;;;10376468;28;20258;-79
2023/06/23 02:25:19;;;;;;;4.43;4.20;;;21.40;99.90;;;;;;10355394;28;20241;-81
2023/06/23 02:30:22;;;;;;;3.87;3.67;;;21.40;99.90;;;;;;10356459;28;20235;-80
2023/06/23 02:35:24;;;;;;;4.00;3.80;;;21.50;99.90;;;;;;10379510;28;20749;-79
2023/06/23 02:40:28;;;;;;;4.50;4.20;;;21.60;99.90;;;;;;10366685;28;20664;-80
2023/06/23 02:45:38;;;;;;;4.80;4.40;;;21.60;99.90;;;;;;10372695;28;20231;-79
2023/06/23 02:50:42;;;;;;;4.80;4.47;;;21.70;99.90;;;;;;10355144;28;20250;-79
2023/06/23 02:55:47;;;;;;;4.97;4.67;;;21.70;99.90;;;;;;10355838;28;20227;-80
2023/06/23 03:00:52;;;;;;;6.40;6.00;;;21.70;99.90;;;;;;10339535;28;20218;-78
2023/06/23 03:05:56;;;;;;;6.50;6.10;;;21.70;99.90;;;;;;10335024;28;20844;-80
2023/06/23 03:10:58;;;;;;;7.00;6.50;;;21.70;99.90;;;;;;10373194;28;20266;-79
2023/06/23 03:16:06;;;;;;;8.17;7.47;;;21.70;99.90;;;;;;10355742;28;20222;-79
2023/06/23 03:21:11;;;;;;;8.37;7.67;;;21.70;99.90;;;;;;10357236;28;20219;-80
2023/06/23 03:26:14;;;;;;;7.63;7.03;;;21.70;99.90;;;;;;10354159;28;20272;-79
2023/06/23 03:31:19;;;;;;;7.43;6.83;;;21.70;99.90;;;;;;10355291;28;20219;-80
2023/06/23 03:36:24;;;;;;;8.57;7.97;;;21.70;99.90;;;;;;10360998;28;20633;-80
2023/06/23 03:41:29;;;;;;;9.00;8.20;;;21.70;99.90;;;;;;10373492;28;20287;-80
2023/06/23 03:46:44;;;;;;;8.10;7.40;;;21.80;99.90;;;;;;10361136;28;20225;-79
2023/06/23 03:51:50;;;;;;;8.50;7.83;;;21.80;99.90;;;;;;10375128;28;20223;-79
2023/06/23 03:56:54;;;;;;;8.20;7.50;;;21.80;99.90;;;;;;10373982;28;20187;-81
2023/06/23 04:01:59;;;;;;;9.30;8.37;;;21.80;99.90;;;;;;10371058;28;20695;-79
2023/06/23 04:07:03;;;;;;;8.90;8.23;;;21.80;99.70;;;;;;10365191;28;20674;-79
2023/06/23 04:12:07;;;;;;;8.80;8.10;;;21.80;98.70;;;;;;10370972;28;20199;-79
2023/06/23 04:17:13;;;;;;;9.43;8.73;;;21.80;98.70;;;;;;10356932;28;20204;-80
2023/06/23 04:22:18;;;;;;;8.70;8.00;;;21.90;98.60;;;;;;10375941;23;20237;-84
2023/06/23 04:27:22;;;;;;;9.63;8.47;;;22.00;98.30;;;;;;10406103;28;20220;-85
2023/06/23 04:32:29;;;;;;;9.50;8.80;;;22.00;98.30;;;;;;10391374;28;20223;-85
2023/06/23 04:37:37;;;;;;;9.83;9.03;;;22.00;98.20;;;;;;10386624;28;20277;-86
2023/06/23 04:42:46;;;;;;;9.20;8.50;;;22.10;98.00;;;;;;10397349;28;20219;-84
2023/06/23 04:47:54;;;;;;;10.63;9.77;;;22.10;97.90;;;;;;10403243;28;20269;-84
2023/06/23 04:53:02;;;;;;;10.30;9.40;;;22.10;97.40;;;;;;10393865;28;20214;-85
2023/06/23 04:58:06;;;;;;;11.40;10.30;;;22.20;97.10;;;;;;10397292;28;20732;-83
2023/06/23 05:03:11;;;;;;;12.30;11.10;;;22.30;96.50;;;;;;10411894;28;20211;-84
2023/06/23 05:08:14;;;;;;;10.77;9.67;;;22.30;96.30;;;;;;10405564;28;20195;-84
2023/06/23 05:13:19;;;;;;;12.43;11.30;;;22.30;96.10;;;;;;10395293;28;20210;-84
2023/06/23 05:18:24;;;;;;;11.97;10.90;;;22.30;95.70;;;;;;10407958;28;20206;-83
2023/06/23 05:23:27;;;;;;;13.20;12.00;;;22.20;95.90;;;;;;10407752;28;20226;-82
2023/06/23 05:28:32;;;;;;;12.97;11.87;;;22.20;95.70;;;;;;10406186;28;20282;-84
2023/06/23 05:33:38;;;;;;;14.97;13.67;;;22.30;95.70;;;;;;10410008;28;20215;-84
2023/06/23 05:38:43;;;;;;;13.67;12.37;;;22.40;95.10;;;;;;10405686;28;20258;-84
2023/06/23 05:43:45;;;;;;;14.70;13.40;;;22.50;95.20;;;;;;10405698;28;20238;-83
2023/06/23 05:48:52;;;;;;;13.93;12.73;;;22.60;95.60;;;;;;10387468;28;20207;-83
2023/06/23 05:53:58;;;;;;;15.53;14.00;;;22.70;95.10;;;;;;10404244;28;20266;-84
2023/06/23 05:59:06;;;;;;;16.10;14.60;;;22.70;94.70;;;;;;10382212;28;20203;-84
2023/06/23 06:04:13;;;;;;;14.87;13.57;;;22.70;94.40;;;;;;10408243;28;20218;-83
2023/06/23 06:09:18;;;;;;;17.13;15.37;;;22.80;94.50;;;;;;10418125;28;20196;-84
2023/06/23 06:14:21;;;;;;;15.20;13.63;;;22.80;93.80;;;;;;10412033;28;20218;-84
2023/06/23 06:19:26;;;;;;;14.87;13.50;;;22.80;94.30;;;;;;10392347;28;20281;-84
2023/06/23 06:24:30;;;;;;;14.77;13.33;;;23.00;93.90;;;;;;10398868;28;20215;-82
2023/06/23 06:29:36;;;;;;;14.27;12.97;;;23.10;93.70;;;;;;10391918;28;20748;-84
2023/06/23 06:34:42;;;;;;;14.50;13.10;;;23.30;92.30;;;;;;10399676;28;20211;-84
2023/06/23 06:39:46;;;;;;;17.53;15.30;;;23.50;93.20;;;;;;10398492;28;20194;-85
2023/06/23 06:44:49;;;;;;;16.07;14.37;;;23.80;92.30;;;;;;10404368;28;20218;-84
2023/06/23 06:49:53;;;;;;;15.40;14.07;;;23.90;92.50;;;;;;10409870;28;20206;-84
2023/06/23 06:54:55;;;;;;;14.73;13.37;;;24.00;91.50;;;;;;10404451;28;20238;-83
2023/06/23 06:59:57;;;;;;;16.50;14.90;;;23.90;91.30;;;;;;10405271;28;20206;-84
2023/06/23 07:05:02;;;;;;;15.20;13.70;;;23.80;90.90;;;;;;10414078;28;20230;-85
2023/06/23 07:10:05;;;;;;;14.73;13.43;;;23.70;91.10;;;;;;10402709;28;20222;-83
2023/06/23 07:15:08;;;;;;;15.60;14.10;;;23.60;90.90;;;;;;10397481;28;20207;-84
2023/06/23 07:20:12;;;;;;;14.50;13.20;;;23.60;91.80;;;;;;10401074;28;20219;-83
2023/06/23 07:25:14;;;;;;;14.67;13.27;;;23.60;91.90;;;;;;10399985;28;20215;-84
2023/06/23 07:30:17;;;;;;;14.50;13.20;;;23.80;90.90;;;;;;10406461;28;20195;-83
2023/06/23 07:35:20;;;;;;;12.37;11.17;;;23.70;90.80;;;;;;10406210;28;20220;-84
2023/06/23 07:40:23;;;;;;;13.83;12.60;;;23.60;91.10;;;;;;10412089;28;20210;-84
2023/06/23 07:45:25;;;;;;;12.70;10.53;;;23.60;90.60;;;;;;10407952;28;20277;-84
2023/06/23 07:50:28;;;;;;;12.33;11.23;;;23.50;90.40;;;;;;10409548;28;20249;-84
2023/06/23 07:55:30;;;;;;;11.87;10.80;;;23.60;90.30;;;;;;10407564;28;20305;-84
2023/06/23 08:00:32;;;;;;;11.80;10.67;;;23.60;91.00;;;;;;10402284;28;20211;-84
2023/06/23 08:05:37;;;;;;;10.90;9.90;;;23.70;90.00;;;;;;10402338;28;20264;-83
2023/06/23 08:10:39;;;;;;;10.33;9.17;;;23.70;90.40;;;;;;10406867;28;20694;-83
2023/06/23 08:15:41;;;;;;;8.40;7.70;;;23.80;90.40;;;;;;10413286;28;20339;-84
2023/06/23 08:20:45;;;;;;;9.70;8.80;;;24.00;90.00;;;;;;10413315;28;20207;-84
2023/06/23 08:25:47;;;;;;;11.43;8.30;;;24.00;88.30;;;;;;10411164;28;20210;-83
2023/06/23 08:30:49;;;;;;;13.60;10.80;;;24.00;88.60;;;;;;10408037;28;20249;-82
2023/06/23 08:35:53;;;;;;;9.97;8.93;;;24.10;89.50;;;;;;10406098;28;20229;-84
2023/06/23 08:40:55;;;;;;;9.13;8.43;;;24.40;89.00;;;;;;10410117;28;20203;-84
2023/06/23 08:45:59;;;;;;;10.63;9.70;;;24.70;88.10;;;;;;10408453;28;20271;-83
2023/06/23 08:51:03;;;;;;;10.57;9.67;;;25.00;85.90;;;;;;10405114;28;20194;-84
2023/06/23 08:56:07;;;;;;;10.90;9.80;;;25.10;86.00;;;;;;10413166;28;20211;-84
2023/06/23 09:01:09;;;;;;;11.37;8.90;;;25.30;86.70;;;;;;10411800;28;20349;-84
2023/06/23 09:06:13;;;;;;;8.80;8.00;;;25.90;85.10;;;;;;10408152;28;20219;-83
2023/06/23 09:11:16;;;;;;;8.30;7.60;;;26.80;81.30;;;;;;10418090;28;20198;-82
2023/06/23 09:16:18;;;;;;;9.90;9.00;;;27.00;80.70;;;;;;10428226;28;20222;-81
2023/06/23 09:21:23;;;;;;;9.60;8.80;;;27.30;78.50;;;;;;10414837;28;20623;-82
2023/06/23 09:26:25;;;;;;;7.53;6.93;;;27.20;76.80;;;;;;10403084;28;20268;-83
2023/06/23 09:31:28;;;;;;;8.50;7.70;;;27.10;80.10;;;;;;10405471;28;20198;-83
2023/06/23 09:36:36;;;;;;;8.10;7.43;;;27.80;77.80;;;;;;10400624;28;20238;-83
2023/06/23 09:41:38;;;;;;;7.27;6.67;;;28.90;74.70;;;;;;10404492;28;20219;-83
2023/06/23 09:46:42;;;;;;;7.43;6.83;;;30.00;71.90;;;;;;10400653;28;20222;-83
2023/06/23 09:51:47;;;;;;;5.87;5.37;;;30.50;70.00;;;;;;10403567;28;20191;-83
2023/06/23 09:57:01;;;;;;;6.33;5.30;;;31.00;65.70;;;;;;10400996;28;20245;-85
2023/06/23 10:02:04;;;;;;;5.37;4.93;;;32.40;65.10;;;;;;10402269;28;20272;-84
2023/06/23 10:07:21;;;;;;;6.57;5.97;;;33.50;60.40;;;;;;10402534;28;20684;-83
2023/06/23 10:12:26;;;;;;;8.23;6.00;;;34.20;57.70;;;;;;10394700;28;20214;-84
2023/06/23 10:17:28;;;;;;;5.20;4.80;;;34.00;58.30;;;;;;10402364;28;20290;-83
2023/06/23 10:27:50;;;;;;;5.10;4.80;;;35.70;54.00;;;;;;10341090;28;20780;-81
2023/06/23 10:32:56;;;;;;;6.20;5.67;;;34.50;54.40;;;;;;10334250;28;20569;-80
2023/06/23 10:38:04;;;;;;;6.93;6.33;;;33.00;56.10;;;;;;10331141;28;20203;-78
2023/06/23 10:43:08;;;;;;;5.47;4.97;;;31.40;57.80;;;;;;10309643;28;20224;-80
2023/06/23 10:48:10;;;;;;;6.10;5.60;;;30.00;59.00;;;;;;10326121;28;20705;-80
2023/06/23 10:53:16;;;;;;;6.63;6.13;;;28.70;62.70;;;;;;10305551;28;20232;-80
2023/06/23 10:58:20;;;;;;;10.50;9.60;;;27.90;65.30;;;;;;10323282;28;20224;-80
2023/06/23 11:03:29;;;;;;;6.10;5.57;;;27.50;66.70;;;;;;10322806;28;20684;-78
2023/06/23 11:08:33;;;;;;;6.13;5.63;;;27.20;66.60;;;;;;10319632;28;20231;-79
2023/06/23 11:13:46;;;;;;;7.10;6.60;;;26.90;66.70;;;;;;10295759;28;20299;-79
2023/06/23 11:18:51;;;;;;;6.63;6.10;;;26.70;67.20;;;;;;10297130;28;20234;-80
2023/06/23 11:24:19;;;;;;;8.40;6.50;;;26.40;69.60;;;;;;10298350;28;20516;-79
2023/06/23 11:29:24;;;;;;;6.37;5.93;;;26.40;68.70;;;;;;10282159;28;20263;-79
2023/06/23 11:34:26;;;;;;;5.93;5.00;;;26.30;71.20;;;;;;10301984;28;20228;-79
2023/06/23 11:39:28;;;;;;;5.33;4.93;;;26.20;69.70;;;;;;10316262;28;20283;-80
2023/06/23 11:44:32;;;;;;;6.93;6.40;;;26.20;69.20;;;;;;10311997;28;20759;-82
2023/06/23 11:49:38;;;;;;;6.03;5.53;;;26.20;69.40;;;;;;10321083;28;20231;-80
2023/06/23 11:54:41;;;;;;;5.13;4.63;;;26.10;69.30;;;;;;10314081;28;20267;-78
2023/06/23 11:59:45;;;;;;;6.30;5.77;;;26.10;70.90;;;;;;10300844;28;20208;-79
2023/06/23 12:04:49;;;;;;;6.83;6.23;;;26.30;69.70;;;;;;10309050;28;20232;-80
2023/06/23 12:09:53;;;;;;;6.00;5.47;;;26.40;69.70;;;;;;10316637;28;20283;-78
2023/06/23 12:15:00;;;;;;;6.33;5.27;;;26.40;70.70;;;;;;10316113;28;20696;-80
2023/06/23 12:20:02;;;;;;;10.37;9.37;;;26.40;69.60;;;;;;10314019;28;20196;-80
2023/06/23 12:25:05;;;;;;;5.97;5.50;;;26.30;69.50;;;;;;10304646;28;20228;-80
2023/06/23 12:30:19;;;;;;;5.40;5.03;;;26.40;69.90;;;;;;10308836;28;20214;-79
2023/06/23 12:35:22;;;;;;;4.87;4.57;;;26.30;68.20;;;;;;10340574;28;20284;-80
2023/06/23 12:40:29;;;;;;;5.80;5.20;;;26.20;68.60;;;;;;10337362;28;20223;-82
2023/06/23 12:45:37;;;;;;;6.20;5.40;;;26.10;70.10;;;;;;10333358;28;20224;-80
2023/06/23 12:50:42;;;;;;;6.37;5.57;;;26.10;69.90;;;;;;10330922;28;20200;-81
2023/06/23 12:55:45;;;;;;;5.57;5.23;;;26.00;69.10;;;;;;10316224;28;20215;-81
2023/06/23 13:00:48;;;;;;;12.60;6.23;;;26.10;70.00;;;;;;10328824;28;20275;-79
2023/06/23 13:05:50;;;;;;;5.00;4.57;;;26.30;70.10;;;;;;10300956;28;20239;-80
2023/06/23 13:10:52;;;;;;;6.20;4.50;;;26.50;67.50;;;;;;10314463;28;20224;-80
2023/06/23 13:15:56;;;;;;;4.90;4.50;;;26.40;66.30;;;;;;10326413;28;20283;-80
2023/06/23 13:20:58;;;;;;;4.87;4.57;;;26.30;67.50;;;;;;10321837;28;20854;-80
2023/06/23 13:26:00;;;;;;;5.43;4.93;;;26.20;65.70;;;;;;10340628;28;20224;-81
2023/06/23 13:31:03;;;;;;;5.37;4.97;;;26.10;67.60;;;;;;10331743;28;20267;-82
2023/06/23 13:36:06;;;;;;;4.90;4.50;;;26.20;67.90;;;;;;10339216;28;20204;-81
2023/06/23 13:41:08;;;;;;;3.23;3.03;;;26.10;67.40;;;;;;10334021;28;20695;-81
2023/06/23 13:46:13;;;;;;;3.47;3.27;;;26.10;64.90;;;;;;10316974;28;20311;-81
2023/06/23 13:51:15;;;;;;;3.73;3.43;;;26.10;64.40;;;;;;10309635;28;20264;-81
2023/06/23 13:56:17;;;;;;;3.67;3.37;;;26.20;62.50;;;;;;10315354;28;20228;-81
2023/06/23 14:01:21;;;;;;;3.83;3.53;;;26.40;61.80;;;;;;10323251;28;20216;-83
2023/06/23 14:06:23;;;;;;;3.93;3.63;;;26.50;62.60;;;;;;10312260;28;20221;-82
2023/06/23 14:11:25;;;;;;;3.97;3.67;;;26.50;62.40;;;;;;10314550;28;20200;-80
2023/06/23 14:16:29;;;;;;;4.70;4.33;;;26.40;61.80;;;;;;10331838;28;20235;-80
2023/06/23 14:21:31;;;;;;;6.77;3.60;;;26.40;61.80;;;;;;10317676;28;20232;-79
2023/06/23 14:26:33;;;;;;;4.50;4.20;;;26.40;61.10;;;;;;10334643;28;20266;-80
2023/06/23 14:31:37;;;;;;;6.20;5.70;;;26.20;62.80;;;;;;10329018;28;20204;-81
2023/06/23 14:36:39;;;;;;;3.63;3.43;;;26.10;62.60;;;;;;10322038;28;20604;-81
2023/06/23 14:41:41;;;;;;;4.03;3.73;;;26.00;62.20;;;;;;10335183;28;20196;-82
2023/06/23 14:46:45;;;;;;;4.43;3.60;;;26.10;61.70;;;;;;10332842;28;20274;-81
2023/06/23 14:51:47;;;;;;;4.90;4.50;;;26.30;62.90;;;;;;10337072;28;20434;-80
2023/06/23 14:56:50;;;;;;;4.33;4.00;;;26.40;62.00;;;;;;10329808;28;20220;-80
2023/06/23 15:01:53;;;;;;;4.13;3.80;;;26.20;63.20;;;;;;10329704;28;20565;-80
2023/06/23 15:06:56;;;;;;;4.40;4.00;;;26.10;61.80;;;;;;10332007;28;20220;-82
2023/06/23 15:11:58;;;;;;;4.37;3.73;;;26.00;61.70;;;;;;10334671;28;20204;-81
2023/06/23 15:17:01;;;;;;;4.20;3.90;;;25.90;61.70;;;;;;10338559;28;20299;-81
2023/06/23 15:22:06;;;;;;;4.57;4.27;;;25.80;62.30;;;;;;10333996;28;20200;-80
2023/06/23 15:27:08;;;;;;;4.43;4.03;;;25.80;61.00;;;;;;10314132;28;20224;-80
2023/06/23 15:32:12;;;;;;;4.77;3.50;;;25.80;62.30;;;;;;10319751;28;20204;-80
2023/06/23 15:37:14;;;;;;;4.03;3.73;;;25.80;62.30;;;;;;10316364;28;20222;-81
2023/06/23 15:42:16;;;;;;;3.57;3.27;;;25.80;61.60;;;;;;10334651;28;20271;-80
2023/06/23 15:47:19;;;;;;;4.43;4.13;;;25.90;61.50;;;;;;10333641;28;20230;-80
2023/06/23 15:52:21;;;;;;;4.70;4.40;;;26.00;60.60;;;;;;10318494;28;20196;-81
2023/06/23 15:57:24;;;;;;;4.33;4.03;;;26.10;59.90;;;;;;10333984;28;20243;-81
2023/06/23 16:02:27;;;;;;;3.83;3.63;;;26.00;61.00;;;;;;10336650;28;20698;-80
2023/06/23 16:07:29;;;;;;;3.90;3.60;;;25.90;60.90;;;;;;10329408;28;20225;-80
2023/06/23 16:12:31;;;;;;;4.03;3.73;;;25.80;60.40;;;;;;10330755;28;20200;-82
2023/06/23 16:17:37;;;;;;;4.90;4.50;;;25.80;61.40;;;;;;10316112;28;20222;-81
2023/06/23 16:22:40;;;;;;;4.27;3.87;;;25.80;61.40;;;;;;10333825;28;20204;-82
2023/06/23 16:27:42;;;;;;;4.53;4.13;;;25.80;61.30;;;;;;10328921;28;20197;-82
2023/06/23 16:32:45;;;;;;;3.97;3.77;;;25.80;60.90;;;;;;10392830;22;20234;-80
2023/06/23 16:37:47;;;;;;;3.53;3.33;;;25.70;61.30;;;;;;10420570;28;20673;-80
2023/06/23 16:42:50;;;;;;;4.20;3.80;;;25.70;60.90;;;;;;10398827;28;20293;-79
2023/06/23 16:47:53;;;;;;;4.40;4.10;;;25.70;59.90;;;;;;10417509;28;20270;-79
2023/06/23 16:52:55;;;;;;;3.80;3.50;;;25.60;60.90;;;;;;10409939;28;20760;-80
2023/06/23 16:57:57;;;;;;;4.80;4.50;;;25.60;62.10;;;;;;10402499;28;20559;-80
2023/06/23 17:03:01;;;;;;;4.13;3.80;;;25.60;59.90;;;;;;10417763;28;20215;-80
2023/06/23 17:08:03;;;;;;;4.07;3.67;;;25.60;60.60;;;;;;10417584;28;20262;-79
2023/06/23 17:13:06;;;;;;;4.47;4.17;;;25.60;60.60;;;;;;10396217;28;20245;-79
2023/06/23 17:18:09;;;;;;;4.50;4.10;;;25.60;61.10;;;;;;10415632;28;20187;-79
2023/06/23 17:23:11;;;;;;;4.40;4.10;;;25.70;61.50;;;;;;10418684;28;20215;-79
2023/06/23 17:28:13;;;;;;;4.17;3.87;;;25.90;61.50;;;;;;10398986;28;20596;-80
2023/06/23 17:33:17;;;;;;;3.73;3.50;;;26.00;60.00;;;;;;10418051;28;20233;-79
2023/06/23 17:38:19;;;;;;;4.70;4.40;;;25.90;60.00;;;;;;10418343;28;20675;-79
2023/06/23 17:43:21;;;;;;;3.90;3.70;;;25.90;60.00;;;;;;10416531;28;20227;-79
2023/06/23 17:48:25;;;;;;;5.33;4.93;;;25.80;60.30;;;;;;10418421;28;20205;-80
2023/06/23 17:53:27;;;;;;;5.77;5.27;;;25.80;62.70;;;;;;10419093;28;20297;-80
2023/06/23 17:58:29;;;;;;;5.30;4.90;;;25.80;64.50;;;;;;10415009;28;20203;-80
2023/06/23 18:03:33;;;;;;;5.50;5.10;;;25.60;64.50;;;;;;10399760;28;20673;-79
2023/06/23 18:08:35;;;;;;;5.50;5.07;;;25.50;67.10;;;;;;10419537;28;20206;-80
2023/06/23 18:13:37;;;;;;;5.50;5.10;;;25.40;66.20;;;;;;10401922;28;20206;-79
2023/06/23 18:18:41;;;;;;;6.13;5.47;;;25.20;68.20;;;;;;10418718;28;20201;-79
2023/06/23 18:23:44;;;;;;;4.97;4.67;;;25.10;68.20;;;;;;10401091;28;20207;-79
2023/06/23 18:28:47;;;;;;;5.90;5.40;;;24.90;70.90;;;;;;10401459;28;20203;-80
2023/06/23 18:33:51;;;;;;;4.93;4.63;;;24.80;71.10;;;;;;10415015;28;20226;-79
2023/06/23 18:38:53;;;;;;;5.43;5.00;;;24.80;73.50;;;;;;10418315;28;20225;-80
2023/06/23 18:43:55;;;;;;;5.80;5.40;;;24.70;71.60;;;;;;10401020;28;20222;-80
2023/06/23 18:48:59;;;;;;;5.70;5.30;;;24.70;69.50;;;;;;10418458;28;20197;-79
2023/06/23 18:54:01;;;;;;;5.10;4.80;;;24.50;71.90;;;;;;10416375;28;20265;-79
2023/06/23 18:59:03;;;;;;;5.50;5.10;;;24.40;73.70;;;;;;10416746;28;20284;-79
2023/06/23 19:04:08;;;;;;;5.33;4.93;;;24.30;70.90;;;;;;10396427;28;20223;-80
2023/06/23 19:09:10;;;;;;;5.90;5.40;;;24.20;71.40;;;;;;10416686;28;20187;-79
2023/06/23 19:14:12;;;;;;;6.07;5.57;;;24.00;70.90;;;;;;10399196;28;20236;-80
2023/06/23 19:19:16;;;;;;;5.07;4.73;;;23.90;73.00;;;;;;10398999;28;20186;-79
2023/06/23 19:24:19;;;;;;;6.07;5.57;;;23.80;75.10;;;;;;10408467;28;20230;-79
2023/06/23 19:29:21;;;;;;;6.93;6.43;;;23.80;74.60;;;;;;10416317;28;20226;-79
2023/06/23 19:34:24;;;;;;;6.17;5.67;;;23.70;75.70;;;;;;10386627;28;20314;-81
2023/06/23 19:39:26;;;;;;;6.33;5.73;;;23.60;74.90;;;;;;10409776;28;20225;-79
2023/06/23 19:44:28;;;;;;;6.10;5.50;;;23.50;75.10;;;;;;10397429;28;20214;-79
2023/06/23 19:49:32;;;;;;;6.03;5.53;;;23.40;76.60;;;;;;10409143;28;20222;-79
2023/06/23 19:54:34;;;;;;;5.30;4.90;;;23.30;75.80;;;;;;10398177;28;20193;-80
2023/06/23 19:59:36;;;;;;;6.10;5.63;;;23.20;75.80;;;;;;10414021;28;20609;-80
2023/06/23 20:04:39;;;;;;;6.50;5.17;;;23.10;75.50;;;;;;10413480;28;20697;-80
2023/06/23 20:09:41;;;;;;;5.80;5.30;;;23.00;75.90;;;;;;10425023;28;20202;-79
2023/06/23 20:14:44;;;;;;;7.47;6.57;;;22.80;76.20;;;;;;10406502;28;20720;-79
2023/06/23 20:19:47;;;;;;;13.50;12.30;;;22.80;75.70;;;;;;10408268;28;20201;-79
2023/06/23 20:24:49;;;;;;;7.10;6.50;;;22.70;75.40;;;;;;10410218;28;20211;-78
2023/06/23 20:29:52;;;;;;;5.57;5.17;;;22.60;75.60;;;;;;10390893;28;20241;-78
2023/06/23 20:34:55;;;;;;;4.77;4.37;;;22.50;76.10;;;;;;10424109;28;20214;-78
2023/06/23 20:39:57;;;;;;;5.57;5.07;;;22.50;74.70;;;;;;10416084;28;20217;-78
2023/06/23 20:44:59;;;;;;;5.17;4.77;;;22.40;75.90;;;;;;10424119;28;20240;-78
2023/06/23 20:50:03;;;;;;;5.23;4.67;;;22.40;76.00;;;;;;10403646;28;20222;-78
2023/06/23 20:55:05;;;;;;;5.03;4.63;;;22.30;75.90;;;;;;10404266;28;20225;-79
2023/06/23 21:00:09;;;;;;;4.70;4.40;;;22.30;76.10;;;;;;10413651;28;20242;-80
2023/06/23 21:05:12;;;;;;;5.40;5.00;;;22.30;75.80;;;;;;10421122;28;20218;-80
2023/06/23 21:10:14;;;;;;;5.13;4.63;;;22.20;75.50;;;;;;10400981;28;20264;-79
2023/06/23 21:15:18;;;;;;;5.30;4.90;;;22.10;76.40;;;;;;10410197;28;20206;-78
2023/06/23 21:20:23;;;;;;;5.03;4.63;;;22.10;76.80;;;;;;10393875;28;21043;-79
2023/06/23 21:25:25;;;;;;;5.00;4.60;;;22.10;76.70;;;;;;10390001;28;20334;-79
2023/06/23 21:30:27;;;;;;;5.13;4.60;;;22.10;76.70;;;;;;10387927;28;20243;-79
2023/06/23 21:35:31;;;;;;;5.17;4.77;;;22.00;76.90;;;;;;10396707;28;20186;-79
2023/06/23 21:40:33;;;;;;;5.20;4.80;;;22.00;76.70;;;;;;10422008;28;20241;-80
2023/06/23 21:45:35;;;;;;;5.20;4.80;;;21.90;76.70;;;;;;10428307;28;20309;-79
2023/06/23 21:50:39;;;;;;;5.23;4.73;;;21.90;77.60;;;;;;10403011;28;20220;-78
2023/06/23 21:55:41;;;;;;;4.87;4.40;;;21.90;78.30;;;;;;10404836;28;20183;-79
2023/06/23 22:00:43;;;;;;;4.90;4.50;;;21.90;77.80;;;;;;10418120;28;20258;-79
2023/06/23 22:05:48;;;;;;;4.50;4.10;;;21.80;77.30;;;;;;10408240;28;20215;-76
2023/06/23 22:10:50;;;;;;;4.90;4.50;;;21.70;78.10;;;;;;10407265;28;20214;-79
2023/06/23 22:15:52;;;;;;;5.13;4.63;;;21.70;77.40;;;;;;10418479;28;20202;-78
2023/06/23 22:20:56;;;;;;;4.60;4.23;;;21.60;78.10;;;;;;10418368;28;20237;-80
2023/06/23 22:25:58;;;;;;;4.77;4.47;;;21.60;79.00;;;;;;10383734;28;20215;-78
2023/06/23 22:31:00;;;;;;;4.57;4.27;;;21.50;78.40;;;;;;10418640;28;20557;-80
2023/06/23 22:36:04;;;;;;;5.80;5.30;;;21.50;79.70;;;;;;10416354;28;20199;-79
2023/06/23 22:41:06;;;;;;;5.20;4.80;;;21.40;79.30;;;;;;10397216;28;20215;-77
2023/06/23 22:46:08;;;;;;;4.67;4.37;;;21.40;80.20;;;;;;10417729;28;20207;-79
2023/06/23 22:51:12;;;;;;;4.90;4.50;;;21.30;80.00;;;;;;10418448;28;20214;-79
2023/06/23 22:56:15;;;;;;;5.40;5.00;;;21.30;79.90;;;;;;10409222;28;20305;-79
2023/06/23 23:01:17;;;;;;;5.13;4.73;;;21.30;78.50;;;;;;10417592;28;20604;-78
2023/06/23 23:06:20;;;;;;;5.77;4.83;;;21.20;80.40;;;;;;10415342;28;20222;-78
2023/06/23 23:11:23;;;;;;;5.70;5.10;;;21.20;80.90;;;;;;10412371;28;20235;-78
2023/06/23 23:16:26;;;;;;;7.27;5.23;;;21.20;80.20;;;;;;10417785;28;20213;-79
2023/06/23 23:21:30;;;;;;;5.03;4.63;;;21.20;80.80;;;;;;10398356;28;20353;-79
2023/06/23 23:26:32;;;;;;;5.10;4.70;;;21.10;80.50;;;;;;10415919;28;20226;-79
2023/06/23 23:31:34;;;;;;;4.80;4.40;;;21.10;79.20;;;;;;10416155;28;20222;-79
2023/06/23 23:36:38;;;;;;;4.63;4.30;;;21.10;80.00;;;;;;10414472;28;20202;-78
2023/06/23 23:41:40;;;;;;;5.60;5.20;;;21.00;80.00;;;;;;10412589;28;20236;-79
2023/06/23 23:46:42;;;;;;;4.87;4.47;;;20.90;80.60;;;;;;10415888;28;20268;-79
2023/06/23 23:51:45;;;;;;;5.07;4.67;;;20.90;81.20;;;;;;10397688;28;20218;-79
2023/06/23 23:56:47;;;;;;;5.00;4.53;;;20.90;81.50;;;;;;10407559;28;20206;-79
